createdAt,value
2017-06-08T00:01:00.194Z,0
2017-06-08T00:02:10.455Z,0
2017-06-08T00:03:20.714Z,0
2017-06-08T00:04:30.969Z,0
2017-06-08T00:05:40.940Z,0
2017-06-08T00:06:50.891Z,0
2017-06-08T00:08:00.843Z,0
2017-06-08T00:09:11.105Z,0
2017-06-08T00:10:21.370Z,0
2017-06-08T00:11:31.639Z,0
2017-06-08T00:12:41.272Z,0
2017-06-08T00:13:51.226Z,0
2017-06-08T00:15:01.485Z,0
2017-06-08T00:16:11.753Z,0
2017-06-08T00:17:22.067Z,0
2017-06-08T00:18:32.325Z,0
2017-06-08T00:19:42.271Z,0
2017-06-08T00:20:52.222Z,0
2017-06-08T00:22:02.477Z,0
2017-06-08T00:23:12.735Z,0
2017-06-08T00:24:22.682Z,0
2017-06-08T00:25:32.955Z,0
2017-06-08T00:26:43.220Z,0
2017-06-08T00:27:53.481Z,0
2017-06-08T00:29:03.742Z,0
2017-06-08T00:30:13.694Z,0
2017-06-08T00:31:23.955Z,0
2017-06-08T00:32:34.219Z,0
2017-06-08T00:33:44.159Z,0
2017-06-08T00:34:54.458Z,0
2017-06-08T00:36:04.722Z,0
2017-06-08T00:37:14.984Z,0
2017-06-08T00:38:25.242Z,0
2017-06-08T00:39:35.510Z,0
2017-06-08T00:40:45.775Z,0
2017-06-08T00:41:55.726Z,0
2017-06-08T00:43:05.404Z,0
2017-06-08T00:44:15.035Z,0
2017-06-08T00:45:25.294Z,0
2017-06-08T00:46:35.556Z,0
2017-06-08T00:47:45.503Z,0
2017-06-08T00:48:55.769Z,0
2017-06-08T00:50:06.032Z,0
2017-06-08T00:51:15.982Z,0
2017-06-08T00:52:26.243Z,0
2017-06-08T00:53:36.196Z,0
2017-06-08T00:54:46.465Z,0
2017-06-08T00:55:56.725Z,0
2017-06-08T00:57:06.042Z,0
2017-06-08T00:58:15.680Z,0
2017-06-08T00:59:25.628Z,0
2017-06-08T01:00:35.889Z,0
2017-06-08T01:01:45.835Z,0
2017-06-08T01:02:56.092Z,0
2017-06-08T01:04:05.764Z,0
2017-06-08T01:05:16.026Z,0
2017-06-08T01:06:25.973Z,0
2017-06-08T01:07:35.608Z,0
2017-06-08T01:08:45.557Z,0
2017-06-08T01:09:55.820Z,0
2017-06-08T01:11:06.077Z,0
2017-06-08T01:12:16.030Z,0
2017-06-08T01:13:26.293Z,0
2017-06-08T01:14:36.284Z,0
2017-06-08T01:15:46.231Z,0
2017-06-08T01:16:56.494Z,0
2017-06-08T01:18:06.757Z,0
2017-06-08T01:19:17.021Z,0
2017-06-08T01:20:26.971Z,0
2017-06-08T01:21:37.236Z,0
2017-06-08T01:22:47.502Z,0
2017-06-08T01:23:57.763Z,0
2017-06-08T01:25:08.017Z,0
2017-06-08T01:26:17.962Z,0
2017-06-08T01:27:27.907Z,0
2017-06-08T01:28:38.164Z,0
2017-06-08T01:29:48.114Z,0
2017-06-08T01:30:58.063Z,0
2017-06-08T01:32:08.323Z,0
2017-06-08T01:33:18.591Z,0
2017-06-08T01:34:28.851Z,0
2017-06-08T01:35:39.109Z,0
2017-06-08T01:36:49.060Z,0
2017-06-08T01:37:59.316Z,0
2017-06-08T01:39:09.279Z,0
2017-06-08T01:40:19.266Z,0
2017-06-08T01:41:29.521Z,0
2017-06-08T01:42:39.462Z,0
2017-06-08T01:43:49.730Z,0
2017-06-08T01:45:00.009Z,0
2017-06-08T01:46:09.639Z,0
2017-06-08T01:47:19.901Z,0
2017-06-08T01:48:30.156Z,0
2017-06-08T01:49:40.100Z,0
2017-06-08T01:50:50.050Z,0
2017-06-08T01:52:00.308Z,0
2017-06-08T01:53:10.569Z,0
2017-06-08T01:54:20.517Z,0
2017-06-08T01:55:30.774Z,0
2017-06-08T01:56:41.032Z,0
2017-06-08T01:57:50.973Z,0
2017-06-08T01:59:01.229Z,0
2017-06-08T02:00:11.179Z,0
2017-06-08T02:01:21.440Z,0
2017-06-08T02:02:31.699Z,0
2017-06-08T02:03:41.961Z,0
2017-06-08T02:04:52.214Z,0
2017-06-08T02:06:02.477Z,0
2017-06-08T02:07:12.430Z,5
2017-06-08T02:08:22.376Z,5
2017-06-08T02:09:32.931Z,5
2017-06-08T02:10:42.875Z,5
2017-06-08T02:11:52.821Z,5
2017-06-08T02:13:03.082Z,5
2017-06-08T02:14:13.029Z,5
2017-06-08T02:15:22.997Z,5
2017-06-08T02:16:33.302Z,10
2017-06-08T02:17:42.933Z,10
2017-06-08T02:18:52.877Z,10
2017-06-08T02:20:03.131Z,10
2017-06-08T02:21:13.598Z,10
2017-06-08T02:22:23.860Z,10
2017-06-08T02:23:34.113Z,10
2017-06-08T02:24:49.408Z,15
2017-06-08T02:25:59.674Z,15
2017-06-08T02:27:09.928Z,15
2017-06-08T02:28:19.912Z,15
2017-06-08T02:29:30.171Z,15
2017-06-08T02:30:40.432Z,15
2017-06-08T02:31:50.687Z,15
2017-06-08T02:33:00.948Z,15
2017-06-08T02:34:10.894Z,15
2017-06-08T02:35:21.151Z,15
2017-06-08T02:36:30.787Z,20
2017-06-08T02:37:41.042Z,15
2017-06-08T02:38:50.985Z,15
2017-06-08T02:40:00.932Z,25
2017-06-08T02:41:11.197Z,20
2017-06-08T02:42:21.459Z,20
2017-06-08T02:43:31.756Z,25
2017-06-08T02:44:42.017Z,20
2017-06-08T02:45:51.966Z,10
2017-06-08T02:47:02.224Z,5
2017-06-08T02:48:12.489Z,10
2017-06-08T02:49:22.756Z,15
2017-06-08T02:50:33.013Z,15
2017-06-08T02:51:42.960Z,15
2017-06-08T02:52:53.221Z,15
2017-06-08T02:54:03.482Z,15
2017-06-08T02:55:13.114Z,15
2017-06-08T02:56:23.373Z,15
2017-06-08T02:57:33.630Z,25
2017-06-08T02:58:43.893Z,25
2017-06-08T02:59:54.158Z,25
2017-06-08T03:01:04.114Z,30
2017-06-08T03:02:14.104Z,30
2017-06-08T03:03:24.364Z,25
2017-06-08T03:04:34.620Z,30
2017-06-08T03:05:44.604Z,20
2017-06-08T03:06:54.866Z,20
2017-06-08T03:08:05.133Z,30
2017-06-08T03:09:15.080Z,30
2017-06-08T03:10:25.029Z,35
2017-06-08T03:11:35.291Z,30
2017-06-08T03:12:45.549Z,30
2017-06-08T03:13:55.818Z,35
2017-06-08T03:15:06.073Z,25
2017-06-08T03:16:16.037Z,25
2017-06-08T03:17:26.300Z,30
2017-06-08T03:18:36.564Z,30
2017-06-08T03:19:46.505Z,35
2017-06-08T03:20:56.447Z,25
2017-06-08T03:22:06.707Z,25
2017-06-08T03:23:17.003Z,30
2017-06-08T03:24:26.944Z,30
2017-06-08T03:25:37.202Z,35
2017-06-08T03:26:47.457Z,30
2017-06-08T03:27:57.724Z,35
2017-06-08T03:29:07.985Z,35
2017-06-08T03:30:17.928Z,50
2017-06-08T03:31:28.194Z,40
2017-06-08T03:32:38.455Z,30
2017-06-08T03:33:48.399Z,25
2017-06-08T03:34:58.658Z,20
2017-06-08T03:36:08.607Z,20
2017-06-08T03:37:18.884Z,25
2017-06-08T03:38:29.188Z,25
2017-06-08T03:39:39.137Z,25
2017-06-08T03:40:49.080Z,25
2017-06-08T03:41:59.025Z,20
2017-06-08T03:43:09.287Z,15
2017-06-08T03:44:19.551Z,25
2017-06-08T03:45:29.810Z,35
2017-06-08T03:46:40.070Z,40
2017-06-08T03:47:50.025Z,25
2017-06-08T03:49:00.291Z,50
2017-06-08T03:50:10.546Z,95
2017-06-08T03:51:20.494Z,80
2017-06-08T03:52:30.751Z,120
2017-06-08T03:53:40.702Z,95
2017-06-08T03:54:50.656Z,60
2017-06-08T03:56:00.911Z,90
2017-06-08T03:57:10.544Z,125
2017-06-08T03:58:20.802Z,125
2017-06-08T03:59:30.740Z,70
2017-06-08T04:00:41.001Z,75
2017-06-08T04:01:51.257Z,95
2017-06-08T04:03:01.521Z,110
2017-06-08T04:04:11.778Z,100
2017-06-08T04:05:22.036Z,85
2017-06-08T04:06:32.303Z,80
2017-06-08T04:07:42.563Z,65
2017-06-08T04:08:52.829Z,50
2017-06-08T04:10:03.097Z,35
2017-06-08T04:11:13.362Z,30
2017-06-08T04:12:23.310Z,35
2017-06-08T04:13:33.567Z,45
2017-06-08T04:14:43.833Z,45
2017-06-08T04:15:53.808Z,55
2017-06-08T04:17:04.069Z,75
2017-06-08T04:18:14.357Z,85
2017-06-08T04:19:24.303Z,60
2017-06-08T04:20:34.605Z,45
2017-06-08T04:21:44.872Z,45
2017-06-08T04:22:55.144Z,40
2017-06-08T04:24:05.404Z,40
2017-06-08T04:25:15.667Z,25
2017-06-08T04:26:25.929Z,25
2017-06-08T04:27:36.198Z,20
2017-06-08T04:28:46.138Z,20
2017-06-08T04:29:56.397Z,15
2017-06-08T04:31:06.653Z,15
2017-06-08T04:32:16.914Z,15
2017-06-08T04:33:27.209Z,20
2017-06-08T04:34:37.469Z,20
2017-06-08T04:35:47.735Z,20
2017-06-08T04:36:57.993Z,35
2017-06-08T04:38:08.256Z,35
2017-06-08T04:39:18.519Z,40
2017-06-08T04:40:28.785Z,35
2017-06-08T04:41:39.044Z,30
2017-06-08T04:42:49.309Z,50
2017-06-08T04:43:59.279Z,45
2017-06-08T04:45:09.546Z,40
2017-06-08T04:46:19.806Z,50
2017-06-08T04:47:30.067Z,65
2017-06-08T04:48:40.333Z,60
2017-06-08T04:49:50.278Z,50
2017-06-08T04:51:00.224Z,50
2017-06-08T04:52:10.485Z,65
2017-06-08T04:53:20.437Z,75
2017-06-08T04:54:30.699Z,80
2017-06-08T04:55:40.962Z,60
2017-06-08T04:56:50.918Z,60
2017-06-08T04:58:00.868Z,60
2017-06-08T04:59:10.821Z,65
2017-06-08T05:00:21.078Z,65
2017-06-08T05:01:31.334Z,60
2017-06-08T05:02:41.282Z,60
2017-06-08T05:03:51.233Z,55
2017-06-08T05:05:01.537Z,65
2017-06-08T05:06:11.484Z,80
2017-06-08T05:07:21.738Z,60
2017-06-08T05:08:32.002Z,60
2017-06-08T05:09:41.958Z,80
2017-06-08T05:10:52.214Z,80
2017-06-08T05:12:02.478Z,75
2017-06-08T05:13:12.423Z,80
2017-06-08T05:14:22.688Z,60
2017-06-08T05:15:32.949Z,60
2017-06-08T05:16:45.209Z,60
2017-06-08T05:17:55.153Z,60
2017-06-08T05:19:05.410Z,85
2017-06-08T05:20:15.672Z,70
2017-06-08T05:21:25.932Z,60
2017-06-08T05:22:36.200Z,65
2017-06-08T05:23:46.468Z,90
2017-06-08T05:24:56.728Z,65
2017-06-08T05:26:06.983Z,55
2017-06-08T05:27:16.937Z,70
2017-06-08T05:28:26.885Z,70
2017-06-08T05:29:36.831Z,65
2017-06-08T05:30:47.099Z,45
2017-06-08T05:31:57.358Z,50
2017-06-08T05:33:07.302Z,60
2017-06-08T05:34:17.254Z,45
2017-06-08T05:35:27.517Z,45
2017-06-08T05:36:37.463Z,50
2017-06-08T05:37:47.405Z,50
2017-06-08T05:38:57.670Z,45
2017-06-08T05:40:07.926Z,70
2017-06-08T05:41:17.244Z,70
2017-06-08T05:42:27.508Z,55
2017-06-08T05:43:37.779Z,65
2017-06-08T05:44:48.042Z,60
2017-06-08T05:45:58.305Z,70
2017-06-08T05:47:08.565Z,60
2017-06-08T05:48:18.848Z,55
2017-06-08T05:49:29.110Z,55
2017-06-08T05:50:39.067Z,50
2017-06-08T05:51:49.328Z,45
2017-06-08T05:52:59.283Z,55
2017-06-08T05:54:09.540Z,50
2017-06-08T05:55:19.799Z,55
2017-06-08T05:56:29.739Z,60
2017-06-08T05:57:40.000Z,75
2017-06-08T05:58:49.958Z,55
2017-06-08T06:00:00.225Z,45
2017-06-08T06:01:10.491Z,75
2017-06-08T06:02:20.442Z,105
2017-06-08T06:03:30.701Z,105
2017-06-08T06:04:40.646Z,95
2017-06-08T06:05:50.908Z,80
2017-06-08T06:07:01.172Z,60
2017-06-08T06:08:11.113Z,65
2017-06-08T06:09:21.370Z,70
2017-06-08T06:10:31.356Z,85
2017-06-08T06:11:41.300Z,65
2017-06-08T06:12:51.270Z,50
2017-06-08T06:14:01.564Z,55
2017-06-08T06:15:11.517Z,50
2017-06-08T06:16:21.464Z,50
2017-06-08T06:17:31.724Z,50
2017-06-08T06:18:41.981Z,55
2017-06-08T06:19:52.240Z,75
2017-06-08T06:21:02.500Z,75
2017-06-08T06:22:12.134Z,60
2017-06-08T06:23:22.395Z,75
2017-06-08T06:24:32.656Z,65
2017-06-08T06:25:42.599Z,70
2017-06-08T06:26:52.546Z,75
2017-06-08T06:28:02.527Z,65
2017-06-08T06:29:12.476Z,100
2017-06-08T06:30:22.736Z,80
2017-06-08T06:31:32.990Z,100
2017-06-08T06:32:42.621Z,150
2017-06-08T06:33:52.571Z,170
2017-06-08T06:35:02.834Z,155
2017-06-08T06:36:12.473Z,110
2017-06-08T06:37:22.737Z,150
2017-06-08T06:38:33.001Z,145
2017-06-08T06:39:43.256Z,155
2017-06-08T06:40:53.253Z,140
2017-06-08T06:42:03.511Z,160
2017-06-08T06:43:13.457Z,165
2017-06-08T06:44:23.728Z,195
2017-06-08T06:45:33.676Z,145
2017-06-08T06:46:43.943Z,170
2017-06-08T06:47:53.895Z,135
2017-06-08T06:49:04.164Z,160
2017-06-08T06:50:14.109Z,140
2017-06-08T06:51:24.368Z,125
2017-06-08T06:52:34.641Z,140
2017-06-08T06:53:44.902Z,160
2017-06-08T06:54:55.160Z,165
2017-06-08T06:56:05.417Z,145
2017-06-08T06:57:15.042Z,185
2017-06-08T06:58:24.987Z,185
2017-06-08T06:59:35.253Z,205
2017-06-08T07:00:45.510Z,230
2017-06-08T07:01:55.842Z,250
2017-06-08T07:03:05.802Z,225
2017-06-08T07:04:16.066Z,245
2017-06-08T07:05:26.010Z,245
2017-06-08T07:06:35.639Z,215
2017-06-08T07:07:45.897Z,235
2017-06-08T07:08:56.158Z,300
2017-06-08T07:10:06.420Z,315
2017-06-08T07:11:16.052Z,275
2017-06-08T07:12:25.689Z,290
2017-06-08T07:13:35.941Z,230
2017-06-08T07:14:45.577Z,325
2017-06-08T07:15:55.849Z,285
2017-06-08T07:17:05.787Z,260
2017-06-08T07:18:15.731Z,245
2017-06-08T07:19:25.365Z,235
2017-06-08T07:20:35.623Z,205
2017-06-08T07:21:45.886Z,215
2017-06-08T07:22:55.835Z,205
2017-06-08T07:24:06.098Z,290
2017-06-08T07:25:16.046Z,280
2017-06-08T07:26:25.998Z,260
2017-06-08T07:27:36.263Z,235
2017-06-08T07:28:46.521Z,210
2017-06-08T07:29:56.469Z,200
2017-06-08T07:31:06.759Z,235
2017-06-08T07:32:17.020Z,220
2017-06-08T07:33:27.288Z,200
2017-06-08T07:34:37.547Z,190
2017-06-08T07:35:47.492Z,170
2017-06-08T07:36:57.436Z,240
2017-06-08T07:38:07.385Z,250
2017-06-08T07:39:17.332Z,375
2017-06-08T07:40:27.589Z,475
2017-06-08T07:41:37.858Z,480
2017-06-08T07:42:47.810Z,460
2017-06-08T07:43:58.071Z,465
2017-06-08T07:45:08.015Z,485
2017-06-08T07:46:17.968Z,490
2017-06-08T07:47:28.230Z,490
2017-06-08T07:48:37.860Z,440
2017-06-08T07:49:47.808Z,400
2017-06-08T07:50:58.089Z,305
2017-06-08T07:52:07.724Z,315
2017-06-08T07:53:17.705Z,290
2017-06-08T07:54:27.336Z,345
2017-06-08T07:55:37.594Z,385
2017-06-08T07:56:47.867Z,415
2017-06-08T07:57:58.128Z,435
2017-06-08T07:59:08.391Z,410
2017-06-08T08:00:18.697Z,405
2017-06-08T08:01:28.973Z,400
2017-06-08T08:02:39.234Z,345
2017-06-08T08:03:49.497Z,325
2017-06-08T08:04:59.760Z,285
2017-06-08T08:06:10.063Z,355
2017-06-08T08:07:20.336Z,385
2017-06-08T08:08:30.597Z,455
2017-06-08T08:09:40.861Z,460
2017-06-08T08:10:51.130Z,390
2017-06-08T08:12:01.393Z,355
2017-06-08T08:13:11.356Z,340
2017-06-08T08:14:21.615Z,320
2017-06-08T08:15:31.882Z,340
2017-06-08T08:16:42.150Z,305
2017-06-08T08:17:52.413Z,270
2017-06-08T08:19:02.675Z,255
2017-06-08T08:20:12.368Z,285
2017-06-08T08:21:22.636Z,240
2017-06-08T08:22:32.592Z,210
2017-06-08T08:23:42.862Z,210
2017-06-08T08:24:52.808Z,200
2017-06-08T08:26:03.134Z,205
2017-06-08T08:27:13.400Z,225
2017-06-08T08:28:23.661Z,225
2017-06-08T08:29:33.928Z,235
2017-06-08T08:30:44.243Z,220
2017-06-08T08:31:54.276Z,205
2017-06-08T08:33:04.544Z,165
2017-06-08T08:34:14.811Z,155
2017-06-08T08:35:25.078Z,180
2017-06-08T08:36:35.348Z,210
2017-06-08T08:37:45.607Z,260
2017-06-08T08:38:55.866Z,325
2017-06-08T08:40:06.133Z,390
2017-06-08T08:41:16.082Z,370
2017-06-08T08:42:25.713Z,325
2017-06-08T08:43:35.655Z,285
2017-06-08T08:44:45.608Z,245
2017-06-08T08:45:55.871Z,250
2017-06-08T08:47:05.505Z,225
2017-06-08T08:48:15.771Z,215
2017-06-08T08:49:25.722Z,215
2017-06-08T08:50:35.673Z,195
2017-06-08T08:51:45.938Z,175
2017-06-08T08:52:56.198Z,165
2017-06-08T08:54:06.462Z,155
2017-06-08T08:55:16.410Z,140
2017-06-08T08:56:26.371Z,140
2017-06-08T08:57:36.320Z,175
2017-06-08T08:58:46.585Z,205
2017-06-08T08:59:56.537Z,215
2017-06-08T09:01:06.486Z,245
2017-06-08T09:02:16.442Z,240
2017-06-08T09:03:26.698Z,230
2017-06-08T09:04:36.961Z,205
2017-06-08T09:05:47.224Z,175
2017-06-08T09:06:57.175Z,165
2017-06-08T09:08:07.127Z,180
2017-06-08T09:09:17.079Z,185
2017-06-08T09:10:27.032Z,160
2017-06-08T09:11:36.997Z,155
2017-06-08T09:12:47.257Z,170
2017-06-08T09:13:57.208Z,170
2017-06-08T09:15:06.850Z,165
2017-06-08T09:16:16.792Z,150
2017-06-08T09:17:27.266Z,160
2017-06-08T09:18:37.531Z,185
2017-06-08T09:19:47.802Z,280
2017-06-08T09:20:57.746Z,455
2017-06-08T09:22:07.688Z,610
2017-06-08T09:23:17.640Z,645
2017-06-08T09:24:27.905Z,635
2017-06-08T09:25:38.180Z,570
2017-06-08T09:26:48.441Z,490
2017-06-08T09:27:58.711Z,430
2017-06-08T09:29:08.980Z,425
2017-06-08T09:30:19.241Z,405
2017-06-08T09:31:29.516Z,380
2017-06-08T09:32:39.788Z,360
2017-06-08T09:33:49.737Z,340
2017-06-08T09:34:59.688Z,335
2017-06-08T09:36:09.328Z,340
2017-06-08T09:37:19.592Z,325
2017-06-08T09:38:29.855Z,285
2017-06-08T09:39:39.805Z,255
2017-06-08T09:40:49.753Z,235
2017-06-08T09:42:00.021Z,240
2017-06-08T09:43:10.321Z,245
2017-06-08T09:44:20.584Z,260
2017-06-08T09:45:30.852Z,325
2017-06-08T09:46:41.115Z,400
2017-06-08T09:47:51.378Z,480
2017-06-08T09:49:01.325Z,540
2017-06-08T09:50:10.969Z,580
2017-06-08T09:51:21.234Z,585
2017-06-08T09:52:31.179Z,630
2017-06-08T09:53:41.436Z,645
2017-06-08T09:54:51.393Z,620
2017-06-08T09:56:01.342Z,565
2017-06-08T09:57:11.607Z,535
2017-06-08T09:58:21.871Z,565
2017-06-08T09:59:32.135Z,635
2017-06-08T10:00:42.402Z,655
2017-06-08T10:01:52.357Z,665
2017-06-08T10:03:02.620Z,615
2017-06-08T10:04:12.883Z,530
2017-06-08T10:05:22.834Z,435
2017-06-08T10:06:33.100Z,445
2017-06-08T10:07:43.367Z,600
2017-06-08T10:08:53.817Z,760
2017-06-08T10:10:04.253Z,805
2017-06-08T10:11:15.330Z,665
2017-06-08T10:12:27.445Z,595
2017-06-08T10:13:38.764Z,565
2017-06-08T10:14:49.555Z,565
2017-06-08T10:16:00.324Z,570
2017-06-08T10:17:10.304Z,575
2017-06-08T10:18:20.576Z,565
2017-06-08T10:19:30.840Z,560
2017-06-08T10:20:41.102Z,585
2017-06-08T10:21:50.770Z,590
2017-06-08T10:23:01.034Z,590
2017-06-08T10:24:10.984Z,585
2017-06-08T10:25:21.260Z,555
2017-06-08T10:26:31.215Z,575
2017-06-08T10:27:41.485Z,590
2017-06-08T10:28:51.433Z,535
2017-06-08T10:30:01.705Z,555
2017-06-08T10:31:11.977Z,515
2017-06-08T10:32:22.248Z,485
2017-06-08T10:33:32.197Z,475
2017-06-08T10:34:42.457Z,525
2017-06-08T10:35:52.753Z,570
2017-06-08T10:37:03.020Z,570
2017-06-08T10:38:13.293Z,625
2017-06-08T10:39:23.557Z,705
2017-06-08T10:40:33.510Z,760
2017-06-08T10:41:43.517Z,750
2017-06-08T10:42:53.780Z,715
2017-06-08T10:44:04.045Z,685
2017-06-08T10:45:14.313Z,715
2017-06-08T10:46:24.582Z,750
2017-06-08T10:47:34.851Z,780
2017-06-08T10:48:45.115Z,745
2017-06-08T10:49:55.395Z,650
2017-06-08T10:51:05.359Z,590
2017-06-08T10:52:15.320Z,550
2017-06-08T10:53:25.586Z,495
2017-06-08T10:54:35.856Z,455
2017-06-08T10:55:46.126Z,425
2017-06-08T10:56:56.386Z,400
2017-06-08T10:58:06.333Z,390
2017-06-08T10:59:16.286Z,395
2017-06-08T11:00:26.247Z,465
2017-06-08T11:01:36.525Z,555
2017-06-08T11:02:46.791Z,625
2017-06-08T11:03:56.749Z,665
2017-06-08T11:05:07.021Z,680
2017-06-08T11:06:17.285Z,670
2017-06-08T11:07:27.548Z,635
2017-06-08T11:08:37.817Z,590
2017-06-08T11:09:47.776Z,505
2017-06-08T11:10:58.045Z,420
2017-06-08T11:12:07.684Z,375
2017-06-08T11:13:17.955Z,400
2017-06-08T11:14:28.223Z,440
2017-06-08T11:15:38.188Z,475
2017-06-08T11:16:47.831Z,510
2017-06-08T11:17:58.097Z,530
2017-06-08T11:19:08.050Z,560
2017-06-08T11:20:18.010Z,650
2017-06-08T11:21:28.287Z,700
2017-06-08T11:22:38.243Z,700
2017-06-08T11:23:48.505Z,695
2017-06-08T11:24:58.775Z,665
2017-06-08T11:26:08.730Z,665
2017-06-08T11:27:18.703Z,650
2017-06-08T11:28:28.969Z,620
2017-06-08T11:29:39.234Z,575
2017-06-08T11:30:49.506Z,550
2017-06-08T11:31:59.767Z,540
2017-06-08T11:33:09.722Z,550
2017-06-08T11:34:19.990Z,550
2017-06-08T11:35:30.255Z,535
2017-06-08T11:36:40.518Z,535
2017-06-08T11:37:50.797Z,535
2017-06-08T11:39:01.065Z,540
2017-06-08T11:40:10.707Z,560
2017-06-08T11:41:21.015Z,590
2017-06-08T11:42:30.965Z,675
2017-06-08T11:43:41.222Z,2185
2017-06-08T11:44:50.869Z,2630
2017-06-08T11:46:01.137Z,1145
2017-06-08T11:47:11.405Z,2980
2017-06-08T11:48:21.671Z,3645
2017-06-08T11:49:31.626Z,3825
2017-06-08T11:50:41.904Z,3675
2017-06-08T11:51:51.866Z,1145
2017-06-08T11:53:02.140Z,1785
2017-06-08T11:54:12.414Z,2340
2017-06-08T11:55:22.375Z,825
2017-06-08T11:56:32.659Z,1495
2017-06-08T11:57:42.941Z,855
2017-06-08T11:58:53.218Z,780
2017-06-08T12:00:06.663Z,1345
2017-06-08T12:01:16.311Z,1245
2017-06-08T12:02:26.272Z,785
2017-06-08T12:03:36.543Z,700
2017-06-08T12:04:46.817Z,935
2017-06-08T12:05:57.092Z,935
2017-06-08T12:07:06.748Z,635
2017-06-08T12:08:17.019Z,530
2017-06-08T12:09:27.308Z,520
2017-06-08T12:10:37.580Z,600
2017-06-08T12:11:47.847Z,655
2017-06-08T12:12:58.114Z,630
2017-06-08T12:14:08.381Z,625
2017-06-08T12:15:18.647Z,615
2017-06-08T12:16:28.911Z,570
2017-06-08T12:17:39.175Z,550
2017-06-08T12:18:49.450Z,565
2017-06-08T12:19:59.728Z,575
2017-06-08T12:21:10.008Z,580
2017-06-08T12:22:19.968Z,580
2017-06-08T12:23:29.938Z,585
2017-06-08T12:24:40.202Z,635
2017-06-08T12:25:50.481Z,665
2017-06-08T12:27:00.749Z,695
2017-06-08T12:28:11.024Z,715
2017-06-08T12:29:21.319Z,790
2017-06-08T12:30:31.275Z,800
2017-06-08T12:31:41.229Z,800
2017-06-08T12:32:51.503Z,805
2017-06-08T12:34:01.779Z,785
2017-06-08T12:35:11.736Z,755
2017-06-08T12:36:21.694Z,790
2017-06-08T12:37:31.649Z,775
2017-06-08T12:38:41.927Z,1055
2017-06-08T12:39:52.198Z,2295
2017-06-08T12:41:02.464Z,990
2017-06-08T12:42:12.428Z,900
2017-06-08T12:43:22.705Z,905
2017-06-08T12:44:32.975Z,915
2017-06-08T12:45:42.938Z,990
2017-06-08T12:46:52.895Z,1015
2017-06-08T12:48:02.536Z,1680
2017-06-08T12:49:12.811Z,1390
2017-06-08T12:50:23.082Z,1155
2017-06-08T12:51:33.353Z,1130
2017-06-08T12:52:43.630Z,1310
2017-06-08T12:53:53.582Z,1295
2017-06-08T12:55:03.853Z,1835
2017-06-08T12:56:14.127Z,1650
2017-06-08T12:57:24.395Z,1065
2017-06-08T12:58:34.667Z,1040
2017-06-08T12:59:44.938Z,900
2017-06-08T13:00:55.215Z,855
2017-06-08T13:02:04.864Z,975
2017-06-08T13:03:15.150Z,2220
2017-06-08T13:04:25.108Z,2005
2017-06-08T13:05:35.386Z,1080
2017-06-08T13:06:45.356Z,885
2017-06-08T13:07:55.624Z,940
2017-06-08T13:09:05.900Z,670
2017-06-08T13:10:15.863Z,540
2017-06-08T13:11:26.299Z,445
2017-06-08T13:12:36.566Z,395
2017-06-08T13:13:46.835Z,370
2017-06-08T13:14:57.194Z,365
2017-06-08T13:16:07.514Z,365
2017-06-08T13:17:17.789Z,350
2017-06-08T13:18:28.054Z,340
2017-06-08T13:19:38.008Z,350
2017-06-08T13:20:47.967Z,370
2017-06-08T13:21:58.241Z,415
2017-06-08T13:23:08.514Z,455
2017-06-08T13:24:18.796Z,535
2017-06-08T13:25:28.753Z,735
2017-06-08T13:26:39.020Z,1050
2017-06-08T13:27:49.293Z,2155
2017-06-08T13:28:59.562Z,2915
2017-06-08T13:30:09.832Z,1625
2017-06-08T13:31:20.100Z,3705
2017-06-08T13:32:30.371Z,2585
2017-06-08T13:33:40.325Z,3545
2017-06-08T13:34:50.594Z,3625
2017-06-08T13:36:00.867Z,3595
2017-06-08T13:37:11.145Z,3885
2017-06-08T13:38:21.423Z,3985
2017-06-08T13:39:31.697Z,1470
2017-06-08T13:40:41.974Z,3825
2017-06-08T13:41:52.249Z,2140
2017-06-08T13:43:02.525Z,3535
2017-06-08T13:44:12.799Z,4005
2017-06-08T13:45:23.077Z,3590
2017-06-08T13:46:33.350Z,3540
2017-06-08T13:47:43.316Z,3830
2017-06-08T13:48:53.276Z,3910
2017-06-08T13:50:03.552Z,4020
2017-06-08T13:51:13.832Z,4150
2017-06-08T13:52:24.117Z,4215
2017-06-08T13:53:34.086Z,4245
2017-06-08T13:54:44.374Z,4140
2017-06-08T13:55:54.345Z,3360
2017-06-08T13:57:04.629Z,2315
2017-06-08T13:58:14.600Z,2895
2017-06-08T13:59:24.561Z,940
2017-06-08T14:00:34.521Z,820
2017-06-08T14:01:44.497Z,720
2017-06-08T14:02:54.781Z,605
2017-06-08T14:04:05.059Z,485
2017-06-08T14:05:15.029Z,390
2017-06-08T14:06:25.305Z,335
2017-06-08T14:07:35.267Z,300
2017-06-08T14:08:45.266Z,265
2017-06-08T14:09:54.915Z,245
2017-06-08T14:11:04.883Z,240
2017-06-08T14:12:14.843Z,235
2017-06-08T14:13:24.811Z,220
2017-06-08T14:14:35.122Z,220
2017-06-08T14:15:45.403Z,235
2017-06-08T14:16:55.678Z,255
2017-06-08T14:18:05.956Z,290
2017-06-08T14:19:15.918Z,320
2017-06-08T14:20:26.198Z,340
2017-06-08T14:21:36.475Z,345
2017-06-08T14:22:46.747Z,340
2017-06-08T14:23:57.015Z,320
2017-06-08T14:25:06.661Z,265
2017-06-08T14:26:16.930Z,240
2017-06-08T14:27:27.235Z,230
2017-06-08T14:28:37.192Z,215
2017-06-08T14:29:47.465Z,210
2017-06-08T14:30:57.738Z,230
2017-06-08T14:32:08.015Z,245
2017-06-08T14:33:18.281Z,320
2017-06-08T14:34:28.551Z,460
2017-06-08T14:35:38.830Z,515
2017-06-08T14:36:49.100Z,465
2017-06-08T14:37:59.367Z,490
2017-06-08T14:39:09.644Z,535
2017-06-08T14:40:19.913Z,575
2017-06-08T14:41:29.868Z,610
2017-06-08T14:42:39.823Z,640
2017-06-08T14:43:50.089Z,670
2017-06-08T14:45:00.351Z,725
2017-06-08T14:46:10.627Z,815
2017-06-08T14:47:20.913Z,750
2017-06-08T14:48:30.870Z,720
2017-06-08T14:49:41.138Z,645
2017-06-08T14:50:51.098Z,575
2017-06-08T14:52:01.367Z,510
2017-06-08T14:53:11.636Z,475
2017-06-08T14:54:21.907Z,455
2017-06-08T14:55:32.176Z,455
2017-06-08T14:56:42.443Z,475
2017-06-08T14:57:52.712Z,510
2017-06-08T14:59:02.989Z,530
2017-06-08T15:00:12.942Z,560
2017-06-08T15:01:23.213Z,610
2017-06-08T15:02:33.162Z,705
2017-06-08T15:03:43.432Z,750
2017-06-08T15:04:53.699Z,1095
2017-06-08T15:06:03.968Z,1005
2017-06-08T15:07:13.925Z,1040
2017-06-08T15:08:24.195Z,1090
2017-06-08T15:09:33.835Z,1725
2017-06-08T15:10:43.796Z,2890
2017-06-08T15:11:54.058Z,3205
2017-06-08T15:13:04.003Z,3050
2017-06-08T15:14:13.955Z,2615
2017-06-08T15:15:23.919Z,3340
2017-06-08T15:16:33.874Z,3295
2017-06-08T15:17:43.518Z,3345
2017-06-08T15:18:53.796Z,3400
2017-06-08T15:20:04.071Z,1735
2017-06-08T15:21:14.033Z,900
2017-06-08T15:22:24.307Z,1395
2017-06-08T15:23:34.580Z,1955
2017-06-08T15:24:44.850Z,1065
2017-06-08T15:25:54.503Z,2860
2017-06-08T15:27:04.776Z,3165
2017-06-08T15:28:14.781Z,3090
2017-06-08T15:29:25.058Z,2975
2017-06-08T15:30:35.329Z,3140
2017-06-08T15:31:45.604Z,3110
2017-06-08T15:32:55.574Z,3135
2017-06-08T15:34:05.533Z,3185
2017-06-08T15:35:15.500Z,3160
2017-06-08T15:36:25.466Z,3070
2017-06-08T15:37:35.747Z,3020
2017-06-08T15:38:46.020Z,3100
2017-06-08T15:39:56.295Z,3130
2017-06-08T15:41:06.575Z,1850
2017-06-08T15:42:16.857Z,3185
2017-06-08T15:43:27.131Z,3010
2017-06-08T15:44:37.427Z,3095
2017-06-08T15:45:47.708Z,1905
2017-06-08T15:46:57.987Z,2045
2017-06-08T15:48:08.279Z,1150
2017-06-08T15:49:18.555Z,1115
2017-06-08T15:50:28.832Z,1575
2017-06-08T15:51:39.112Z,1265
2017-06-08T15:52:49.387Z,1340
2017-06-08T15:53:59.670Z,960
2017-06-08T15:55:09.326Z,900
2017-06-08T15:56:19.293Z,835
2017-06-08T15:57:29.265Z,765
2017-06-08T15:58:39.545Z,735
2017-06-08T15:59:49.818Z,730
2017-06-08T16:01:00.096Z,770
2017-06-08T16:02:10.059Z,840
2017-06-08T16:03:20.337Z,1020
2017-06-08T16:04:30.304Z,1035
2017-06-08T16:05:39.958Z,975
2017-06-08T16:06:50.274Z,1380
2017-06-08T16:08:00.231Z,1625
2017-06-08T16:09:10.195Z,1015
2017-06-08T16:10:20.160Z,825
2017-06-08T16:11:29.811Z,810
2017-06-08T16:12:39.777Z,800
2017-06-08T16:13:49.736Z,925
2017-06-08T16:14:59.699Z,1965
2017-06-08T16:16:09.993Z,3135
2017-06-08T16:17:19.653Z,3125
2017-06-08T16:18:29.614Z,3055
2017-06-08T16:19:39.891Z,1000